sensor_id;sensor_type;location;lat;lon;timestamp;temperature;humidity
33007;DHT22;19361;51.598;7.650;2023-11-18T00:01:49;5.30;72.20
33007;DHT22;19361;51.598;7.650;2023-11-18T00:06:49;5.30;72.30
33007;DHT22;19361;51.598;7.650;2023-11-18T00:11:51;5.30;72.30
33007;DHT22;19361;51.598;7.650;2023-11-18T00:16:51;5.30;72.30
33007;DHT22;19361;51.598;7.650;2023-11-18T00:21:52;5.20;72.10
33007;DHT22;19361;51.598;7.650;2023-11-18T00:26:53;5.20;72.10
33007;DHT22;19361;51.598;7.650;2023-11-18T00:31:55;5.20;72.20
33007;DHT22;19361;51.598;7.650;2023-11-18T00:36:56;5.20;72.20
33007;DHT22;19361;51.598;7.650;2023-11-18T00:41:59;5.10;72.10
33007;DHT22;19361;51.598;7.650;2023-11-18T00:47:00;5.10;72.20
33007;DHT22;19361;51.598;7.650;2023-11-18T00:52:03;5.00;72.30
33007;DHT22;19361;51.598;7.650;2023-11-18T00:57:04;5.00;72.40
33007;DHT22;19361;51.598;7.650;2023-11-18T01:02:04;5.10;72.50
33007;DHT22;19361;51.598;7.650;2023-11-18T01:07:05;5.00;72.50
33007;DHT22;19361;51.598;7.650;2023-11-18T01:12:06;5.00;72.50
33007;DHT22;19361;51.598;7.650;2023-11-18T01:17:09;5.00;72.60
33007;DHT22;19361;51.598;7.650;2023-11-18T01:22:10;5.00;72.60
33007;DHT22;19361;51.598;7.650;2023-11-18T01:27:12;5.00;72.60
33007;DHT22;19361;51.598;7.650;2023-11-18T01:32:13;5.00;72.70
33007;DHT22;19361;51.598;7.650;2023-11-18T01:37:14;5.00;72.70
33007;DHT22;19361;51.598;7.650;2023-11-18T01:42:15;4.90;72.60
33007;DHT22;19361;51.598;7.650;2023-11-18T01:47:15;5.00;72.70
33007;DHT22;19361;51.598;7.650;2023-11-18T01:52:16;5.00;72.70
33007;DHT22;19361;51.598;7.650;2023-11-18T01:57:17;4.90;72.70
33007;DHT22;19361;51.598;7.650;2023-11-18T02:02:18;4.90;72.70
33007;DHT22;19361;51.598;7.650;2023-11-18T02:07:21;4.90;72.70
33007;DHT22;19361;51.598;7.650;2023-11-18T02:17:56;4.80;72.60
33007;DHT22;19361;51.598;7.650;2023-11-18T02:22:58;4.80;72.50
33007;DHT22;19361;51.598;7.650;2023-11-18T02:27:59;4.80;72.50
33007;DHT22;19361;51.598;7.650;2023-11-18T02:33:03;4.80;72.60
33007;DHT22;19361;51.598;7.650;2023-11-18T02:38:12;4.80;72.70
33007;DHT22;19361;51.598;7.650;2023-11-18T02:43:14;4.80;72.70
33007;DHT22;19361;51.598;7.650;2023-11-18T02:48:15;4.70;72.60
33007;DHT22;19361;51.598;7.650;2023-11-18T02:53:18;4.70;72.60
33007;DHT22;19361;51.598;7.650;2023-11-18T02:58:19;4.70;72.50
33007;DHT22;19361;51.598;7.650;2023-11-18T03:03:20;4.70;72.60
33007;DHT22;19361;51.598;7.650;2023-11-18T03:08:21;4.70;72.70
33007;DHT22;19361;51.598;7.650;2023-11-18T03:13:22;4.70;72.70
33007;DHT22;19361;51.598;7.650;2023-11-18T03:18:23;4.80;72.80
33007;DHT22;19361;51.598;7.650;2023-11-18T03:23:24;4.80;72.90
33007;DHT22;19361;51.598;7.650;2023-11-18T03:28:25;4.80;72.90
33007;DHT22;19361;51.598;7.650;2023-11-18T03:33:26;4.80;72.90
33007;DHT22;19361;51.598;7.650;2023-11-18T03:38:27;4.90;72.80
33007;DHT22;19361;51.598;7.650;2023-11-18T03:43:29;4.90;72.70
33007;DHT22;19361;51.598;7.650;2023-11-18T03:48:29;4.90;72.60
33007;DHT22;19361;51.598;7.650;2023-11-18T03:53:30;4.90;72.50
33007;DHT22;19361;51.598;7.650;2023-11-18T03:58:34;4.90;72.40
33007;DHT22;19361;51.598;7.650;2023-11-18T04:03:34;4.80;72.30
33007;DHT22;19361;51.598;7.650;2023-11-18T04:08:36;4.80;72.30
33007;DHT22;19361;51.598;7.650;2023-11-18T04:13:37;4.80;72.20
33007;DHT22;19361;51.598;7.650;2023-11-18T04:18:38;4.80;72.30
33007;DHT22;19361;51.598;7.650;2023-11-18T04:23:42;4.70;72.30
33007;DHT22;19361;51.598;7.650;2023-11-18T04:28:43;4.70;72.20
33007;DHT22;19361;51.598;7.650;2023-11-18T04:33:43;4.70;72.30
33007;DHT22;19361;51.598;7.650;2023-11-18T04:38:44;4.60;72.30
33007;DHT22;19361;51.598;7.650;2023-11-18T04:43:45;4.60;72.20
33007;DHT22;19361;51.598;7.650;2023-11-18T04:48:47;4.60;72.30
33007;DHT22;19361;51.598;7.650;2023-11-18T04:53:48;4.60;72.30
33007;DHT22;19361;51.598;7.650;2023-11-18T04:58:49;4.60;72.50
33007;DHT22;19361;51.598;7.650;2023-11-18T05:03:49;4.50;72.60
33007;DHT22;19361;51.598;7.650;2023-11-18T05:08:50;4.60;72.80
33007;DHT22;19361;51.598;7.650;2023-11-18T05:13:51;4.70;73.00
33007;DHT22;19361;51.598;7.650;2023-11-18T05:18:51;4.70;73.00
33007;DHT22;19361;51.598;7.650;2023-11-18T05:23:52;4.70;73.00
33007;DHT22;19361;51.598;7.650;2023-11-18T05:28:53;4.80;72.90
33007;DHT22;19361;51.598;7.650;2023-11-18T05:33:55;4.80;72.80
33007;DHT22;19361;51.598;7.650;2023-11-18T05:38:55;4.80;72.60
33007;DHT22;19361;51.598;7.650;2023-11-18T05:43:56;4.90;72.60
33007;DHT22;19361;51.598;7.650;2023-11-18T05:49:02;4.90;72.70
33007;DHT22;19361;51.598;7.650;2023-11-18T05:54:06;4.90;72.70
33007;DHT22;19361;51.598;7.650;2023-11-18T05:59:07;4.90;72.70
33007;DHT22;19361;51.598;7.650;2023-11-18T06:04:08;4.90;72.80
33007;DHT22;19361;51.598;7.650;2023-11-18T06:09:09;4.90;72.80
33007;DHT22;19361;51.598;7.650;2023-11-18T06:14:18;4.90;72.80
33007;DHT22;19361;51.598;7.650;2023-11-18T06:19:18;4.90;72.90
33007;DHT22;19361;51.598;7.650;2023-11-18T06:24:20;4.90;73.00
33007;DHT22;19361;51.598;7.650;2023-11-18T06:29:22;5.00;73.00
33007;DHT22;19361;51.598;7.650;2023-11-18T06:34:24;5.00;73.00
33007;DHT22;19361;51.598;7.650;2023-11-18T06:39:26;5.00;73.10
33007;DHT22;19361;51.598;7.650;2023-11-18T06:44:30;5.10;73.10
33007;DHT22;19361;51.598;7.650;2023-11-18T06:49:30;5.10;73.30
33007;DHT22;19361;51.598;7.650;2023-11-18T06:54:34;5.10;73.30
33007;DHT22;19361;51.598;7.650;2023-11-18T06:59:35;5.10;73.30
33007;DHT22;19361;51.598;7.650;2023-11-18T07:04:35;5.20;73.40
33007;DHT22;19361;51.598;7.650;2023-11-18T07:09:39;5.30;73.40
33007;DHT22;19361;51.598;7.650;2023-11-18T07:14:40;5.30;73.40
33007;DHT22;19361;51.598;7.650;2023-11-18T07:19:40;5.30;73.50
33007;DHT22;19361;51.598;7.650;2023-11-18T07:24:41;5.40;73.60
33007;DHT22;19361;51.598;7.650;2023-11-18T07:29:43;5.40;73.70
33007;DHT22;19361;51.598;7.650;2023-11-18T07:34:45;5.50;73.70
33007;DHT22;19361;51.598;7.650;2023-11-18T07:39:46;5.60;73.90
33007;DHT22;19361;51.598;7.650;2023-11-18T07:44:48;5.60;73.80
33007;DHT22;19361;51.598;7.650;2023-11-18T07:49:49;5.70;73.80
33007;DHT22;19361;51.598;7.650;2023-11-18T07:54:50;5.70;73.90
33007;DHT22;19361;51.598;7.650;2023-11-18T07:59:53;5.80;74.10
33007;DHT22;19361;51.598;7.650;2023-11-18T08:04:53;5.90;74.30
33007;DHT22;19361;51.598;7.650;2023-11-18T08:09:54;6.00;74.30
33007;DHT22;19361;51.598;7.650;2023-11-18T08:14:55;6.10;74.40
33007;DHT22;19361;51.598;7.650;2023-11-18T08:19:56;6.20;74.40
33007;DHT22;19361;51.598;7.650;2023-11-18T08:24:56;6.30;74.50
33007;DHT22;19361;51.598;7.650;2023-11-18T08:29:57;6.40;74.60
33007;DHT22;19361;51.598;7.650;2023-11-18T08:34:58;6.50;74.60
33007;DHT22;19361;51.598;7.650;2023-11-18T08:40:00;6.60;74.60
33007;DHT22;19361;51.598;7.650;2023-11-18T08:45:03;6.70;74.60
33007;DHT22;19361;51.598;7.650;2023-11-18T08:50:04;6.80;74.70
33007;DHT22;19361;51.598;7.650;2023-11-18T08:55:13;6.90;74.90
33007;DHT22;19361;51.598;7.650;2023-11-18T09:00:27;7.00;74.80
33007;DHT22;19361;51.598;7.650;2023-11-18T09:05:48;7.10;74.80
33007;DHT22;19361;51.598;7.650;2023-11-18T09:10:57;7.10;74.70
33007;DHT22;19361;51.598;7.650;2023-11-18T09:15:59;7.20;74.60
33007;DHT22;19361;51.598;7.650;2023-11-18T09:21:03;7.30;74.80
33007;DHT22;19361;51.598;7.650;2023-11-18T09:26:05;7.30;74.80
33007;DHT22;19361;51.598;7.650;2023-11-18T09:31:08;7.40;74.80
33007;DHT22;19361;51.598;7.650;2023-11-18T09:36:16;7.40;74.90
33007;DHT22;19361;51.598;7.650;2023-11-18T09:41:18;7.50;75.10
33007;DHT22;19361;51.598;7.650;2023-11-18T09:46:23;7.50;75.40
33007;DHT22;19361;51.598;7.650;2023-11-18T09:51:26;7.60;75.60
33007;DHT22;19361;51.598;7.650;2023-11-18T09:56:41;7.70;75.80
33007;DHT22;19361;51.598;7.650;2023-11-18T10:01:50;7.80;75.90
33007;DHT22;19361;51.598;7.650;2023-11-18T10:06:54;7.80;75.90
33007;DHT22;19361;51.598;7.650;2023-11-18T10:11:56;8.00;75.80
33007;DHT22;19361;51.598;7.650;2023-11-18T10:17:06;8.00;75.70
33007;DHT22;19361;51.598;7.650;2023-11-18T10:22:21;8.10;75.70
33007;DHT22;19361;51.598;7.650;2023-11-18T10:27:29;8.20;75.90
33007;DHT22;19361;51.598;7.650;2023-11-18T10:32:31;8.20;75.60
33007;DHT22;19361;51.598;7.650;2023-11-18T10:37:35;8.30;75.50
33007;DHT22;19361;51.598;7.650;2023-11-18T10:42:43;8.30;75.40
33007;DHT22;19361;51.598;7.650;2023-11-18T10:47:49;8.40;75.40
33007;DHT22;19361;51.598;7.650;2023-11-18T10:52:50;8.40;75.40
33007;DHT22;19361;51.598;7.650;2023-11-18T10:57:51;8.40;75.40
33007;DHT22;19361;51.598;7.650;2023-11-18T11:02:59;8.50;75.50
33007;DHT22;19361;51.598;7.650;2023-11-18T11:08:02;8.50;75.50
33007;DHT22;19361;51.598;7.650;2023-11-18T11:13:05;8.60;75.60
33007;DHT22;19361;51.598;7.650;2023-11-18T11:18:08;8.70;75.60
33007;DHT22;19361;51.598;7.650;2023-11-18T11:23:47;8.70;75.60
33007;DHT22;19361;51.598;7.650;2023-11-18T11:29:25;8.80;75.80
33007;DHT22;19361;51.598;7.650;2023-11-18T11:34:29;8.80;75.70
33007;DHT22;19361;51.598;7.650;2023-11-18T11:39:31;8.90;75.60
33007;DHT22;19361;51.598;7.650;2023-11-18T11:44:37;8.90;75.50
33007;DHT22;19361;51.598;7.650;2023-11-18T11:49:54;8.90;75.50
33007;DHT22;19361;51.598;7.650;2023-11-18T11:55:41;9.00;75.70
33007;DHT22;19361;51.598;7.650;2023-11-18T12:00:38;9.00;75.60
33007;DHT22;19361;51.598;7.650;2023-11-18T12:05:42;9.10;75.50
33007;DHT22;19361;51.598;7.650;2023-11-18T12:10:54;9.10;75.50
33007;DHT22;19361;51.598;7.650;2023-11-18T12:15:56;9.10;75.60
33007;DHT22;19361;51.598;7.650;2023-11-18T12:20:57;9.10;75.50
33007;DHT22;19361;51.598;7.650;2023-11-18T12:26:02;9.20;75.50
33007;DHT22;19361;51.598;7.650;2023-11-18T12:31:41;9.20;75.50
33007;DHT22;19361;51.598;7.650;2023-11-18T12:37:11;9.20;75.50
33007;DHT22;19361;51.598;7.650;2023-11-18T12:48:05;9.30;76.00
33007;DHT22;19361;51.598;7.650;2023-11-18T12:53:12;9.30;76.00
33007;DHT22;19361;51.598;7.650;2023-11-18T12:58:15;9.40;75.80
33007;DHT22;19361;51.598;7.650;2023-11-18T13:03:15;9.40;75.70
33007;DHT22;19361;51.598;7.650;2023-11-18T13:08:18;9.40;75.70
33007;DHT22;19361;51.598;7.650;2023-11-18T13:13:20;9.50;75.80
33007;DHT22;19361;51.598;7.650;2023-11-18T13:18:23;9.50;75.90
33007;DHT22;19361;51.598;7.650;2023-11-18T13:23:26;9.50;76.10
33007;DHT22;19361;51.598;7.650;2023-11-18T13:28:27;9.50;76.30
33007;DHT22;19361;51.598;7.650;2023-11-18T13:33:28;9.50;76.40
33007;DHT22;19361;51.598;7.650;2023-11-18T13:38:29;9.50;76.40
33007;DHT22;19361;51.598;7.650;2023-11-18T13:43:46;9.50;76.50
33007;DHT22;19361;51.598;7.650;2023-11-18T13:48:51;9.50;77.00
33007;DHT22;19361;51.598;7.650;2023-11-18T13:53:52;9.50;76.90
33007;DHT22;19361;51.598;7.650;2023-11-18T13:58:53;9.50;77.00
33007;DHT22;19361;51.598;7.650;2023-11-18T14:03:54;9.60;77.10
33007;DHT22;19361;51.598;7.650;2023-11-18T14:08:55;9.50;77.40
33007;DHT22;19361;51.598;7.650;2023-11-18T14:13:56;9.50;77.20
33007;DHT22;19361;51.598;7.650;2023-11-18T14:18:58;9.50;77.30
33007;DHT22;19361;51.598;7.650;2023-11-18T14:24:00;9.50;77.90
33007;DHT22;19361;51.598;7.650;2023-11-18T14:29:03;9.50;77.30
33007;DHT22;19361;51.598;7.650;2023-11-18T14:34:04;9.60;77.30
33007;DHT22;19361;51.598;7.650;2023-11-18T14:39:05;9.50;77.20
33007;DHT22;19361;51.598;7.650;2023-11-18T14:44:10;9.50;77.10
33007;DHT22;19361;51.598;7.650;2023-11-18T14:49:11;9.50;77.10
33007;DHT22;19361;51.598;7.650;2023-11-18T14:54:12;9.50;77.00
33007;DHT22;19361;51.598;7.650;2023-11-18T14:59:13;9.50;77.00
33007;DHT22;19361;51.598;7.650;2023-11-18T15:04:13;9.50;77.00
33007;DHT22;19361;51.598;7.650;2023-11-18T15:09:14;9.50;77.00
33007;DHT22;19361;51.598;7.650;2023-11-18T15:14:15;9.50;77.00
33007;DHT22;19361;51.598;7.650;2023-11-18T15:19:16;9.50;77.20
33007;DHT22;19361;51.598;7.650;2023-11-18T15:24:18;9.50;77.20
33007;DHT22;19361;51.598;7.650;2023-11-18T15:29:18;9.50;77.30
33007;DHT22;19361;51.598;7.650;2023-11-18T15:34:19;9.50;77.30
33007;DHT22;19361;51.598;7.650;2023-11-18T15:39:20;9.50;77.50
33007;DHT22;19361;51.598;7.650;2023-11-18T15:44:20;9.50;77.50
33007;DHT22;19361;51.598;7.650;2023-11-18T15:49:21;9.50;77.50
33007;DHT22;19361;51.598;7.650;2023-11-18T15:54:22;9.50;77.60
33007;DHT22;19361;51.598;7.650;2023-11-18T15:59:22;9.50;77.80
33007;DHT22;19361;51.598;7.650;2023-11-18T16:04:25;9.50;77.80
33007;DHT22;19361;51.598;7.650;2023-11-18T16:09:26;9.50;77.70
33007;DHT22;19361;51.598;7.650;2023-11-18T16:14:27;9.50;77.70
33007;DHT22;19361;51.598;7.650;2023-11-18T16:19:27;9.60;77.80
33007;DHT22;19361;51.598;7.650;2023-11-18T16:24:28;9.60;78.00
33007;DHT22;19361;51.598;7.650;2023-11-18T16:29:29;9.60;78.00
33007;DHT22;19361;51.598;7.650;2023-11-18T16:34:31;9.60;77.90
33007;DHT22;19361;51.598;7.650;2023-11-18T16:39:32;9.60;77.80
33007;DHT22;19361;51.598;7.650;2023-11-18T16:44:33;9.60;77.90
33007;DHT22;19361;51.598;7.650;2023-11-18T16:49:34;9.60;77.90
33007;DHT22;19361;51.598;7.650;2023-11-18T16:54:34;9.60;78.00
33007;DHT22;19361;51.598;7.650;2023-11-18T16:59:35;9.70;78.20
33007;DHT22;19361;51.598;7.650;2023-11-18T17:04:36;9.70;78.20
33007;DHT22;19361;51.598;7.650;2023-11-18T17:09:37;9.70;78.30
33007;DHT22;19361;51.598;7.650;2023-11-18T17:14:38;9.70;78.40
33007;DHT22;19361;51.598;7.650;2023-11-18T17:19:38;9.70;78.40
33007;DHT22;19361;51.598;7.650;2023-11-18T17:24:39;9.70;78.40
33007;DHT22;19361;51.598;7.650;2023-11-18T17:29:40;9.70;78.50
33007;DHT22;19361;51.598;7.650;2023-11-18T17:34:41;9.70;78.40
33007;DHT22;19361;51.598;7.650;2023-11-18T17:39:43;9.80;78.50
33007;DHT22;19361;51.598;7.650;2023-11-18T17:44:43;9.80;79.10
33007;DHT22;19361;51.598;7.650;2023-11-18T17:49:44;9.80;79.10
33007;DHT22;19361;51.598;7.650;2023-11-18T17:54:45;9.80;79.00
33007;DHT22;19361;51.598;7.650;2023-11-18T17:59:46;9.80;79.20
33007;DHT22;19361;51.598;7.650;2023-11-18T18:04:47;9.90;79.10
33007;DHT22;19361;51.598;7.650;2023-11-18T18:09:48;9.90;79.30
33007;DHT22;19361;51.598;7.650;2023-11-18T18:14:48;9.90;79.30
33007;DHT22;19361;51.598;7.650;2023-11-18T18:19:52;9.90;79.30
33007;DHT22;19361;51.598;7.650;2023-11-18T18:24:53;9.90;79.30
33007;DHT22;19361;51.598;7.650;2023-11-18T18:29:53;10.00;79.40
33007;DHT22;19361;51.598;7.650;2023-11-18T18:34:55;10.00;79.40
33007;DHT22;19361;51.598;7.650;2023-11-18T18:39:55;10.00;79.70
33007;DHT22;19361;51.598;7.650;2023-11-18T18:44:56;10.00;79.70
33007;DHT22;19361;51.598;7.650;2023-11-18T18:49:57;10.00;79.60
33007;DHT22;19361;51.598;7.650;2023-11-18T18:54:58;10.10;79.80
33007;DHT22;19361;51.598;7.650;2023-11-18T18:59:59;10.10;79.70
33007;DHT22;19361;51.598;7.650;2023-11-18T19:04:59;10.10;79.70
33007;DHT22;19361;51.598;7.650;2023-11-18T19:10:00;10.20;79.80
33007;DHT22;19361;51.598;7.650;2023-11-18T19:15:02;10.20;79.80
33007;DHT22;19361;51.598;7.650;2023-11-18T19:20:05;10.20;79.90
33007;DHT22;19361;51.598;7.650;2023-11-18T19:25:13;10.30;79.90
33007;DHT22;19361;51.598;7.650;2023-11-18T19:30:15;10.30;79.90
33007;DHT22;19361;51.598;7.650;2023-11-18T19:35:16;10.30;79.90
33007;DHT22;19361;51.598;7.650;2023-11-18T19:40:17;10.40;79.80
33007;DHT22;19361;51.598;7.650;2023-11-18T19:45:18;10.40;79.70
33007;DHT22;19361;51.598;7.650;2023-11-18T19:50:19;10.50;79.70
33007;DHT22;19361;51.598;7.650;2023-11-18T19:55:19;10.50;79.80
33007;DHT22;19361;51.598;7.650;2023-11-18T20:00:21;10.50;79.90
33007;DHT22;19361;51.598;7.650;2023-11-18T20:05:24;10.60;79.80
33007;DHT22;19361;51.598;7.650;2023-11-18T20:10:26;10.60;79.70
33007;DHT22;19361;51.598;7.650;2023-11-18T20:15:27;10.60;79.60
33007;DHT22;19361;51.598;7.650;2023-11-18T20:20:28;10.70;79.60
33007;DHT22;19361;51.598;7.650;2023-11-18T20:25:29;10.70;79.70
33007;DHT22;19361;51.598;7.650;2023-11-18T20:30:30;10.70;80.20
33007;DHT22;19361;51.598;7.650;2023-11-18T20:35:31;10.80;80.30
33007;DHT22;19361;51.598;7.650;2023-11-18T20:40:32;10.80;79.70
33007;DHT22;19361;51.598;7.650;2023-11-18T20:45:32;10.90;79.60
33007;DHT22;19361;51.598;7.650;2023-11-18T20:50:33;10.80;79.60
33007;DHT22;19361;51.598;7.650;2023-11-18T20:55:35;10.90;79.70
33007;DHT22;19361;51.598;7.650;2023-11-18T21:00:36;10.90;79.80
33007;DHT22;19361;51.598;7.650;2023-11-18T21:05:37;11.00;79.80
33007;DHT22;19361;51.598;7.650;2023-11-18T21:10:37;11.00;79.70
33007;DHT22;19361;51.598;7.650;2023-11-18T21:15:38;11.00;79.80
33007;DHT22;19361;51.598;7.650;2023-11-18T21:20:42;11.10;79.80
33007;DHT22;19361;51.598;7.650;2023-11-18T21:25:42;11.10;79.90
33007;DHT22;19361;51.598;7.650;2023-11-18T21:30:43;11.10;79.90
33007;DHT22;19361;51.598;7.650;2023-11-18T21:35:44;11.20;80.10
33007;DHT22;19361;51.598;7.650;2023-11-18T21:40:45;11.20;80.10
33007;DHT22;19361;51.598;7.650;2023-11-18T21:45:46;11.30;80.30
33007;DHT22;19361;51.598;7.650;2023-11-18T21:50:47;11.30;80.30
33007;DHT22;19361;51.598;7.650;2023-11-18T21:55:50;11.30;80.20
33007;DHT22;19361;51.598;7.650;2023-11-18T22:00:54;11.40;80.10
33007;DHT22;19361;51.598;7.650;2023-11-18T22:05:55;11.40;80.10
33007;DHT22;19361;51.598;7.650;2023-11-18T22:10:56;11.40;80.30
33007;DHT22;19361;51.598;7.650;2023-11-18T22:15:58;11.50;80.40
33007;DHT22;19361;51.598;7.650;2023-11-18T22:21:00;11.50;80.30
33007;DHT22;19361;51.598;7.650;2023-11-18T22:26:01;11.50;80.20
33007;DHT22;19361;51.598;7.650;2023-11-18T22:31:02;11.60;80.40
33007;DHT22;19361;51.598;7.650;2023-11-18T22:36:05;11.60;80.50
33007;DHT22;19361;51.598;7.650;2023-11-18T22:41:08;11.60;80.60
33007;DHT22;19361;51.598;7.650;2023-11-18T22:46:12;11.60;80.70
33007;DHT22;19361;51.598;7.650;2023-11-18T22:51:13;11.70;80.90
33007;DHT22;19361;51.598;7.650;2023-11-18T22:56:13;11.70;81.00
33007;DHT22;19361;51.598;7.650;2023-11-18T23:01:14;11.80;81.00
33007;DHT22;19361;51.598;7.650;2023-11-18T23:06:20;11.80;81.10
33007;DHT22;19361;51.598;7.650;2023-11-18T23:11:21;11.80;81.30
33007;DHT22;19361;51.598;7.650;2023-11-18T23:16:22;11.90;81.30
33007;DHT22;19361;51.598;7.650;2023-11-18T23:21:24;11.90;81.20
33007;DHT22;19361;51.598;7.650;2023-11-18T23:26:26;11.90;81.30
33007;DHT22;19361;51.598;7.650;2023-11-18T23:31:27;12.00;81.30
33007;DHT22;19361;51.598;7.650;2023-11-18T23:36:28;12.00;81.60
33007;DHT22;19361;51.598;7.650;2023-11-18T23:41:29;12.10;82.00
33007;DHT22;19361;51.598;7.650;2023-11-18T23:46:30;12.10;81.90
33007;DHT22;19361;51.598;7.650;2023-11-18T23:51:31;12.20;81.90
33007;DHT22;19361;51.598;7.650;2023-11-18T23:56:32;12.30;82.00
